Mills Orchard, California
Current Conditions -  °F | °C
As of 8:55 PM on Thursday 30 Oct 2014 (Local Time) from KCIC Reporting Station
Clear Clear  
Wind Chill: 72°   Ceiling: Unl
Heat Index: 72°   Visibility: 10mi
Dew Point: 46°   Wind: 12mph
Humidity: 41%   Direction: 150°SSE
Pressure: 29.81"   Gusts: NA
Location:  39.7429°N, 122.012°W
Report Text: KCIC 310355Z AUTO 15010KT 10SM CLR 22/08 A2981 RMK AO1
Loading
Personal Weather Stations






























Interactive Weather Map
Tropical Storm Tracking
New forecast layout! Learn more

10-Day Weather Forecast

Advertisements
Track Severe Weather on mobile